Bookmark and Share
Track history (hours):
 

Oceanographic research ship Hakon Mosby (Norway)

Detailed information on ship capabilities available from University of Delaware's Ocean Information Center and ARCUS's ALIAS (Arctic Logistics Information and Support) project.

Last reported at 2014-Apr-20 00:00 UTC. Time now 2014-Apr-20 00:49 UTC.
Position N 60°18' E 005°18'.

Type: Dredging. MMSI: 258244000.

Wind from 230 at 2 knots

Barometer 1024.5 mb
Air temperature 6.0 ° C
Dewpoint 3.5 ° C
Water temperature 7.6 ° C

NotesDate/timePositionNaut miles runAvg speedWind from/ knotsBaromVisibWave heightAir tempDewpointWater temp
2014-Apr-20 00:00N 60°18' E 005°18'0 0.0 230 / 21024.5 6.0 3.5 7.6
2014-Apr-19 23:00N 60°18' E 005°18'0 0.0 250 / 21024.9 6.1 3.3 7.6
2014-Apr-19 22:00N 60°18' E 005°18'0 0.0 330 / 21025.2 7.1 3.9 7.8
2014-Apr-19 21:00N 60°18' E 005°18'0 0.0 260 / 21025.4 7.6 3.6 7.6
2014-Apr-19 20:00N 60°18' E 005°18'0 0.0 300 / 21025.7 8.6 3.5 7.3
2014-Apr-19 19:00N 60°18' E 005°18'0 0.0 310 / 41025.7 9.5 3.2 7.5
2014-Apr-19 18:00N 60°18' E 005°18'0 0.0 240 / 21025.4 11.0 1.0 7.3
2014-Apr-19 17:00N 60°18' E 005°18'0 0.0 230 / 41025.5 11.8 1.4 7.3
2014-Apr-19 16:00N 60°18' E 005°18'0 0.0 230 / 41025.7 12.1 0.8 7.3
2014-Apr-19 15:00N 60°18' E 005°18'0 0.0 220 / 41025.7 12.6 0.9 7.2
2014-Apr-19 14:00N 60°18' E 005°18'0 0.0 230 / 41025.9 13.6-0.4 7.1
2014-Apr-19 13:00N 60°18' E 005°18'0 0.0 220 / 41026.2 13.0-0.3 7.0
2014-Apr-19 12:00N 60°18' E 005°18'0 0.0 210 / 41026.4 12.6-0.6 6.8
2014-Apr-19 10:00N 60°18' E 005°18'0 0.0 180 / 41026.2 12.5-1.4 6.8
2014-Apr-19 09:00N 60°18' E 005°18'0 0.0 170 / 61026.0 11.9-1.3 6.8
2014-Apr-19 07:00N 60°18' E 005°18'0 0.0 160 / 41025.5 9.6-1.4 6.8
2014-Apr-19 06:00N 60°18' E 005°18'0 0.0 150 / 61025.4 8.1-1.5 6.8
2014-Apr-19 05:00N 60°18' E 005°18'0 0.0 150 / 61024.7 7.8-1.5 6.7
2014-Apr-19 04:00N 60°18' E 005°18'0 0.0 140 / 81024.4 7.6-1.7 6.7
2014-Apr-19 03:00N 60°18' E 005°18'0 0.0 030 / 21024.0 4.0 1.4 6.8
2014-Apr-19 02:00N 60°18' E 005°18'0 0.0 280 / 21023.6 4.4 1.4 6.7
2014-Apr-19 01:00N 60°18' E 005°18'0 0.0 230 / 21023.5 4.6 1.7 6.7
2014-Apr-19 00:00N 60°18' E 005°18'0 0.0 230 1023.1 4.9 1.3 7.0
2014-Apr-18 23:00N 60°18' E 005°18'0 0.0 290 1022.6 5.0 1.1 7.1
2014-Apr-18 20:00N 60°18' E 005°18'0 0.0 300 / 41022.2 6.6 0.6 7.0
2014-Apr-18 18:00N 60°18' E 005°18'0 0.0 320 / 41020.7 8.5-0.7 7.0
2014-Apr-18 17:00N 60°18' E 005°18'0 0.0 330 / 81020.5 8.5-0.1 7.1
2014-Apr-18 16:00N 60°18' E 005°18'6 6.0 330 / 81020.2 8.5-0.3 7.0
2014-Apr-18 15:00N 60°24' E 005°18'19 9.5 300 / 121019.6 9.6-0.0 6.8
2014-Apr-18 13:00N 60°36' E 004°48'3010.0 340 / 141019.2 8.1 0.3 6.2
2014-Apr-18 10:00N 61°06' E 004°42'3110.2 360 / 121017.8 6.8-2.3 5.9
2014-Apr-18 07:00N 61°36' E 004°54'1313.3 030 / 41017.0 0.4-5.6 5.4
2014-Apr-18 06:00N 61°48' E 005°06'12 6.0 120 / 41016.0 4.6-0.5 5.5
2014-Apr-18 04:00N 62°00' E 005°06'1212.0 040 / 81014.1 5.1-0.6 5.6
2014-Apr-18 03:00N 62°12' E 005°06'28 9.3 030 / 141013.9 5.2 0.1 5.6
2014-Apr-18 00:00N 62°24' E 006°00'7 8.3 040 / 161010.6 5.6-0.4 5.6
2014-Apr-17 23:07N 62°29' E 006°11'643.7
2014-Apr-17 23:00N 62°24' E 006°06'1120.9 020 / 141009.6 5.5 0.8 5.5
2014-Apr-17 22:29N 62°34' E 006°13'3 6.2
2014-Apr-17 22:00N 62°36' E 006°18'8 8.1 020 / 191008.2 5.0 0.2 5.6
2014-Apr-17 21:00N 62°42' E 006°30'1514.5 020 / 251006.7 5.2 0.7 5.6
2014-Apr-17 20:00N 62°54' E 006°48'1010.1 030 / 231004.8 5.5 2.5 5.6
2014-Apr-17 19:00N 63°00' E 007°06'17 8.7 010 / 251002.7 4.6 2.3 5.6
2014-Apr-17 17:00N 63°06' E 007°42'6010.0 280 / 16999.3 5.3 3.1 5.5
2014-Apr-17 11:00N 63°48' E 009°18'7 6.6 250 / 6995.5 6.1 4.1 5.5
2014-Apr-17 10:00N 63°54' E 009°24'1313.1 230 / 10995.9 6.1 3.5 5.4
2014-Apr-17 09:00N 64°06' E 009°36'18 8.9 200 / 8996.0 7.2 3.1 5.4
2014-Apr-17 07:00N 64°18' E 010°06'1414.3 180 / 6998.1 6.6 4.0 5.4
2014-Apr-17 06:00N 64°30' E 010°24'10 9.8 150 / 8999.5 6.1 4.2 5.5
2014-Apr-17 05:00N 64°36' E 010°42'10 9.8 180 / 101000.7 5.8 4.2 5.5
2014-Apr-17 04:00N 64°42' E 011°00'8 7.9 260 / 121002.2 5.9 4.3 4.9
2014-Apr-17 03:00N 64°48' E 011°12'3010.0 260 / 251003.0 6.1 3.5 4.9
2014-Apr-17 00:00N 65°12' E 011°54'19 9.3 230 / 171005.2 6.1 3.7 5.0
2014-Apr-16 22:00N 65°30' E 012°06'1212.3 230 / 161006.0 6.0 4.6 4.5
2014-Apr-16 21:00N 65°42' E 012°12'19 9.7 230 / 171005.8 6.0 4.6 4.6
2014-Apr-16 19:00N 66°00' E 012°30'711.4 240 / 291005.6 6.5 4.8 4.8
2014-Apr-16 18:21N 66°06' E 012°42'7 8.8
2014-Apr-16 17:32N 66°12' E 012°51'9 9.5
2014-Apr-16 16:33N 66°21' E 012°57'4 6.4
2014-Apr-16 16:00N 66°24' E 012°54'613.0 210 / 331005.7 6.3 2.4 4.9
2014-Apr-16 15:30N 66°30' E 012°58'1 1.2
2014-Apr-16 15:00N 66°30' E 013°00'2910.3 220 / 331005.8 5.6 2.1 4.8
2014-Apr-16 12:08N 66°57' E 013°29'5 8.9
2014-Apr-16 11:32N 67°00' E 013°40'10 9.3
2014-Apr-16 10:30N 67°06' E 013°59'9 9.5
2014-Apr-16 09:33N 67°14' E 014°11'3 5.6
2014-Apr-16 09:00N 67°12' E 014°18'1022.7 230 / 171009.2 6.1 1.5 4.3
2014-Apr-16 08:33N 67°22' E 014°24'9 9.4
2014-Apr-16 07:33N 67°31' E 014°31'1 1.4
2014-Apr-16 07:00N 67°30' E 014°30'1212.0 200 / 271010.0 4.8 1.9 4.1
2014-Apr-16 06:00N 67°42' E 014°30'55 9.2 180 / 271009.7 4.1 1.7 3.9
2014-Apr-16 00:00N 68°24' E 016°06'28 9.5 180 / 101015.5 2.0-8.2 3.1
2014-Apr-15 21:00N 68°48' E 016°48'2211.1 210 / 121017.6 1.8-6.9 3.7
2014-Apr-15 19:00N 69°06' E 017°24'16 8.0 240 / 81018.6 1.7-4.6 2.9
2014-Apr-15 17:00N 69°18' E 017°54'7 7.3 280 / 61018.5 -0.6-2.8 2.6
2014-Apr-15 16:00N 69°24' E 018°06'1010.3 340 / 171017.8 0.3-4.0 3.4
2014-Apr-15 15:00N 69°30' E 018°30'1010.3 330 / 191016.2 2.2-7.4 3.9
2014-Apr-15 14:00N 69°36' E 018°54'0 0.0 240 / 121015.6 1.7-4.6 3.3
2014-Apr-15 13:00N 69°36' E 018°54'3 7.1 260 / 61014.6 1.3-4.3 3.3
2014-Apr-15 12:34N 69°39' E 018°58'3 5.3
2014-Apr-15 12:00N 69°36' E 018°54'3 6.7 190 / 101013.1 1.2-4.0 3.1
2014-Apr-15 11:32N 69°39' E 018°58'0 0.0
2014-Apr-15 10:32N 69°39' E 018°58'3 2.0
2014-Apr-15 09:00N 69°36' E 018°54'3 6.6 250 / 61008.8 -0.0-2.0 3.0
2014-Apr-15 08:32N 69°39' E 018°58'3 5.6
2014-Apr-15 08:00N 69°36' E 018°54'3 6.6 270 / 61007.8 -0.0-2.0 3.0
2014-Apr-15 07:32N 69°39' E 018°58'3 5.6
2014-Apr-15 07:00N 69°36' E 018°54'3 6.6 240 / 81006.3 -0.3-2.2 3.3
2014-Apr-15 06:32N 69°39' E 018°58'3 5.6
2014-Apr-15 06:00N 69°36' E 018°54'0 0.0 240 / 41005.7 0.3-3.4 3.3
2014-Apr-15 05:00N 69°36' E 018°54'0 0.0 260 / 61005.5 -0.2-4.0 3.6
2014-Apr-15 04:00N 69°36' E 018°54'0 0.0 260 / 61004.6 0.5-5.3 3.6
2014-Apr-15 03:00N 69°36' E 018°54'3 6.6 260 / 41004.0 0.6-6.3 3.6
2014-Apr-15 02:32N 69°39' E 018°58'3 5.7
2014-Apr-15 02:00N 69°36' E 018°54'3 6.6 240 / 101003.7 0.7-6.3 3.6
2014-Apr-15 01:32N 69°39' E 018°58'0 0.0
2014-Apr-15 00:32N 69°39' E 018°58'3 5.7
2014-Apr-15 00:00N 69°36' E 018°54'3 6.5 260 / 121003.8 -0.9-3.5 3.4
2014-Apr-14 23:32N 69°39' E 018°58'0 0.0
2014-Apr-14 22:32N 69°39' E 018°58'3 5.7
2014-Apr-14 22:00N 69°36' E 018°54'3 6.5 260 / 61003.6 -0.4-4.3 3.2
2014-Apr-14 21:32N 69°39' E 018°58'3 5.7
2014-Apr-14 21:00N 69°36' E 018°54'3 6.5 260 / 121002.7 1.1-7.0 3.3
2014-Apr-14 20:31N 69°39' E 018°58'0 0.0
2014-Apr-14 19:31N 69°39' E 018°58'3 5.7
2014-Apr-14 19:00N 69°36' E 018°54'3 6.5 260 / 81002.1 -0.0-3.4 3.4
2014-Apr-14 18:31N 69°39' E 018°58'3 5.7
2014-Apr-14 18:00N 69°36' E 018°54'3 6.5 250 / 21001.5 1.1-4.3 3.5
2014-Apr-14 17:31N 69°39' E 018°58'3 5.7
2014-Apr-14 17:00N 69°36' E 018°54'3 6.5 230 / 41000.8 1.1-2.2 3.6
2014-Apr-14 16:31N 69°39' E 018°58'3 5.7
2014-Apr-14 16:00N 69°36' E 018°54'0 0.0 240 / 41000.0 0.8-1.4 3.6
2014-Apr-14 15:00N 69°36' E 018°54'3 6.5 280 / 4998.6 1.0-1.0 3.6
2014-Apr-14 14:31N 69°39' E 018°58'3 5.8
2014-Apr-14 14:00N 69°36' E 018°54'3 6.4 300 / 6997.5 1.8-1.2 3.6
2014-Apr-14 13:31N 69°39' E 018°58'3 2.0
2014-Apr-14 12:00N 69°36' E 018°54'3 6.4 300 / 6995.0 3.2-0.7 3.3
2014-Apr-14 11:31N 69°39' E 018°58'3 5.8
2014-Apr-14 11:00N 69°36' E 018°54'3 6.4 240 / 4994.0 3.5 0.7 3.0
2014-Apr-14 10:31N 69°39' E 018°58'0 0.0
2014-Apr-14 09:31N 69°39' E 018°58'3 5.8
2014-Apr-14 09:00N 69°36' E 018°54'3 6.4 240 / 10992.1 3.3 1.1 3.4
2014-Apr-14 08:31N 69°39' E 018°58'3 5.8
2014-Apr-14 08:00N 69°36' E 018°54'3 6.4 230 / 6991.5 3.3 0.9 3.2
2014-Apr-14 07:31N 69°39' E 018°58'0 0.0
2014-Apr-14 06:31N 69°39' E 018°58'3 5.8
2014-Apr-14 06:00N 69°36' E 018°54'0 0.0 260 / 6990.3 3.1-0.0 3.4
2014-Apr-14 04:00N 69°36' E 018°54'0 0.0 240 / 6988.6 2.5-0.5 3.5
2014-Apr-14 03:00N 69°36' E 018°54'0 0.0 250 / 4988.0 2.6-0.4 3.5
2014-Apr-14 02:00N 69°36' E 018°54'0 0.0 250 / 4987.5 2.5-0.5 3.4
2014-Apr-14 00:00N 69°36' E 018°54'3 2.1 220 / 2986.5 2.4-0.6 3.4
2014-Apr-13 22:31N 69°39' E 018°58'3 5.9
2014-Apr-13 22:00N 69°36' E 018°54'3 6.3 230 / 2986.0 2.2-1.0 3.1
2014-Apr-13 21:31N 69°39' E 018°58'3 5.9
2014-Apr-13 21:00N 69°36' E 018°54'3 6.3 040 / 2985.8 3.2-0.9 3.2
2014-Apr-13 20:31N 69°39' E 018°58'3 5.9
2014-Apr-13 20:00N 69°36' E 018°54'3 6.3 360 / 2985.5 3.4-1.2 3.3
2014-Apr-13 19:31N 69°39' E 018°58'3 5.9
2014-Apr-13 19:00N 69°36' E 018°54'3 7.0 040 / 4985.1 4.1-1.0 3.3
2014-Apr-13 18:34N 69°39' E 018°58'3 5.4
2014-Apr-13 18:00N 69°36' E 018°54'3 7.0 050 / 6985.0 4.9 0.4 3.3
2014-Apr-13 17:34N 69°39' E 018°58'3 5.4
2014-Apr-13 17:00N 69°36' E 018°54'3 7.0 050 / 4984.8 5.0 0.8 3.3
2014-Apr-13 16:33N 69°39' E 018°58'3 5.4
2014-Apr-13 16:00N 69°36' E 018°54'3 7.0 050 / 4984.4 6.3 1.1 3.3
2014-Apr-13 15:33N 69°39' E 018°58'3 5.4
2014-Apr-13 15:00N 69°36' E 018°54'3 7.0 040 / 6984.1 6.9 0.4 3.4
2014-Apr-13 14:33N 69°39' E 018°58'0 0.0
2014-Apr-13 13:33N 69°39' E 018°58'3 5.4
2014-Apr-13 13:00N 69°36' E 018°54'3 7.0 160 / 4984.0 6.1 0.9 3.3
2014-Apr-13 12:33N 69°39' E 018°58'3 5.4
2014-Apr-13 12:00N 69°36' E 018°54'3 7.0 210 / 4983.9 6.7-0.8 3.1
2014-Apr-13 11:33N 69°39' E 018°58'0 0.0
2014-Apr-13 10:33N 69°39' E 018°58'3 5.4
2014-Apr-13 10:00N 69°36' E 018°54'3 7.0 240 / 4984.0 5.9 0.3 2.9
2014-Apr-13 09:33N 69°39' E 018°58'3 5.4
2014-Apr-13 09:00N 69°36' E 018°54'3 7.0 230 / 2984.1 4.0 0.6 2.8
2014-Apr-13 08:33N 69°39' E 018°58'3 5.4
2014-Apr-13 08:00N 69°36' E 018°54'3 7.0 240 / 4984.0 3.7 0.8 2.8
2014-Apr-13 07:33N 69°39' E 018°58'0 0.0
2014-Apr-13 06:33N 69°39' E 018°58'3 5.4
2014-Apr-13 06:00N 69°36' E 018°54'3 6.9 210 / 8983.5 3.0 1.2 3.2
2014-Apr-13 05:33N 69°39' E 018°58'0 0.0
2014-Apr-13 04:33N 69°39' E 018°58'0 0.0
2014-Apr-13 03:33N 69°39' E 018°58'3 5.4
2014-Apr-13 03:00N 69°36' E 018°54'3 6.9 070 / 4983.3 2.0 0.3 3.4
2014-Apr-13 02:33N 69°39' E 018°58'3 5.4
2014-Apr-13 02:00N 69°36' E 018°54'3 6.9 040 / 2983.4 2.0 0.3 3.4
2014-Apr-13 01:33N 69°39' E 018°58'3 5.4
2014-Apr-13 01:00N 69°36' E 018°54'3 6.9 040 / 4 1.5-0.3 3.4
2014-Apr-13 00:33N 69°39' E 018°58'3 5.4
2014-Apr-13 00:00N 69°36' E 018°54'3 6.9 050 / 4984.0 1.8-0.3 3.2
2014-Apr-12 23:33N 69°39' E 018°58'0 0.0
2014-Apr-12 22:33N 69°39' E 018°58'3 5.5
2014-Apr-12 22:00N 69°36' E 018°54'3 6.9 270 / 4984.4 3.1-0.0 2.6
2014-Apr-12 21:33N 69°39' E 018°58'3 5.5
2014-Apr-12 21:00N 69°36' E 018°54'3 6.9 230 / 4984.8 3.4-0.6 2.8
2014-Apr-12 20:33N 69°39' E 018°58'8 6.7
2014-Apr-12 19:23N 69°46' E 019°04'1611.3
2014-Apr-12 18:00N 69°54' E 018°24'1010.3 200 / 19986.1 3.3-0.5 3.5
2014-Apr-12 17:00N 69°54' E 017°54'0 0.0 180 / 16987.0 3.2-0.4 4.0
2014-Apr-12 15:00N 69°54' E 017°54'2 2.1 160 / 16988.4 4.0-1.6 4.3
2014-Apr-12 14:00N 69°54' E 018°00'1010.3 150 / 6 4.4-2.5 4.2
2014-Apr-12 13:00N 69°54' E 018°30'27 9.1 200 / 12990.5 4.0-2.2 3.1
2014-Apr-12 10:00N 70°12' E 019°30'20 9.9 280 / 10992.6 3.7-0.8 3.7
2014-Apr-12 08:00N 70°30' E 019°54'6 6.0 260 / 23992.9 3.6 0.3 4.1
2014-Apr-12 07:00N 70°36' E 019°54'0 0.0 280 / 21992.4 4.7 0.3 4.5
2014-Apr-12 06:00N 70°36' E 019°54'1010.0 260 / 17992.5 4.5 1.3 4.9
2014-Apr-12 05:00N 70°36' E 019°24'18 9.0 260 / 19844.8 5.1 0.2 4.5
2014-Apr-12 03:00N 70°36' E 018°30'16 8.0 260 / 23992.0 5.1 0.9 5.0
2014-Apr-12 01:00N 70°36' E 017°42'7 7.2 280 / 27991.6 4.5 1.7 5.4
2014-Apr-12 00:00N 70°30' E 017°54'7 7.2 270 / 27991.0 4.5 1.7 5.1
2014-Apr-11 23:00N 70°24' E 018°06'24 6.0 270 / 23991.1 4.8 2.4 4.2
2014-Apr-11 19:00N 70°00' E 018°12'12 4.1 270 / 14991.2 5.4 2.4 3.8
2014-Apr-11 16:00N 70°00' E 017°36'2 2.1 220 / 29989.4 4.6 3.0 3.9
2014-Apr-11 15:00N 70°00' E 017°30'7 7.3 220 / 35989.0 4.0 2.1 4.3
2014-Apr-11 14:00N 70°06' E 017°18'7 7.3 220 / 27989.3 4.1 1.9 5.6
2014-Apr-11 13:00N 70°12' E 017°06'4 4.1 220 / 29989.4 5.0 2.1 5.6
2014-Apr-11 12:00N 70°12' E 016°54'13 6.7 220 / 25989.4 5.0 2.4 5.8
2014-Apr-11 10:00N 70°00' E 016°36'7 7.3 210 / 23990.0 4.9 2.2 5.4
2014-Apr-11 09:00N 69°54' E 016°24'12 6.1 200 / 25990.5 4.3 1.9 5.5
2014-Apr-11 07:00N 69°42' E 016°18'4 8.6 190 / 21990.5 4.8 1.2 5.1
2014-Apr-11 06:33N 69°41' E 016°29'12 7.7
2014-Apr-11 05:00N 69°30' E 016°42'6 6.4 190 / 25991.5 4.6 0.7 4.9
2014-Apr-11 04:00N 69°24' E 016°48'8 8.4 190 / 25992.5 5.0 0.1 4.0
2014-Apr-11 03:00N 69°24' E 016°24'1010.4 190 / 25992.8 4.5 0.8 4.1
2014-Apr-11 02:00N 69°18' E 016°00'1010.4 180 / 23993.4 5.0-0.1 4.5
2014-Apr-11 01:00N 69°12' E 015°36'1010.4 190 / 17994.1 4.9 0.4 4.5
2014-Apr-11 00:00N 69°06' E 015°12'14 4.7 190 / 23994.9 4.7 0.1 4.4
2014-Apr-10 21:00N 69°12' E 014°36'23 7.6 200 / 23996.9 4.7-0.1 5.3
2014-Apr-10 18:00N 69°00' E 013°42'9 8.8 200 / 33998.5 4.3 1.2 5.6
2014-Apr-10 17:00N 68°54' E 013°24'15 7.4 200 / 33998.9 4.2 0.8 6.0
2014-Apr-10 15:00N 68°42' E 013°48'0 0.0 190 / 251001.3 5.5-0.1 5.1
2014-Apr-10 14:00N 68°42' E 013°48'6 3.2 200 / 211002.2 6.0-1.0 4.9
2014-Apr-10 12:00N 68°36' E 013°54'15 7.7 200 / 191003.8 6.0-0.5 4.6
2014-Apr-10 10:00N 68°36' E 013°12'9 8.8 190 / 291004.5 5.1 0.9 5.6
2014-Apr-10 09:00N 68°36' E 012°48'9 4.5 200 / 331004.8 5.4 1.2 6.3
2014-Apr-10 07:00N 68°30' E 012°30'4 4.4 190 / 271005.9 4.6 1.3 5.8
2014-Apr-10 06:00N 68°30' E 012°42'6 6.4 190 / 291006.8 5.1 0.5 5.4
2014-Apr-10 05:00N 68°24' E 012°48'6 6.4 190 / 271007.3 5.3 0.6 5.5
2014-Apr-10 04:00N 68°18' E 012°54'7 7.5 190 / 271008.8 5.3 0.6 5.1
2014-Apr-10 03:00N 68°12' E 013°06'2 2.2 190 / 251009.3 4.6 0.8 5.0
2014-Apr-10 02:00N 68°12' E 013°12'7 7.5 180 / 161010.2 4.6 0.8 4.3
2014-Apr-10 01:00N 68°18' E 013°24'7 6.7 190 / 211010.4 4.6 0.2 4.2
2014-Apr-10 00:00N 68°18' E 013°42'   190 / 271010.8 3.2 0.6 4.2

Dump ship's entire track history

sailing weather and tide predictions

Hakon Mosby — LJIT — position and weather